Time;durP1;ratioP1;P1;durP2;ratioP2;P2;SDS_P1;SDS_P2;PMS_P1;PMS_P2;Temp;Humidity;BMP_temperature;BMP_pressure;BME280_temperature;BME280_humidity;BME280_pressure;Samples;Min_cycle;Max_cycle;Signal;HPM_P1;HPM_P2
2021/12/07 00:02:16;;;;;;;115.50;50.53;;;;;;;0.56;81.93;98492.41;2247258;79;21073;-83
2021/12/07 00:05:17;;;;;;;66.07;34.20;;;;;;;3.20;100.00;98484.67;2246541;79;20945;-83
2021/12/07 00:08:17;;;;;;;58.60;29.50;;;;;;;8.02;100.00;98466.50;2230049;79;21009;-83
2021/12/07 00:11:18;;;;;;;51.23;31.07;;;;;;;11.14;90.88;98455.34;2251696;79;20990;-83
2021/12/07 00:14:25;;;;;;;61.47;34.37;;;;;;;12.86;70.12;98437.52;2245211;78;21378;-83
2021/12/07 00:17:26;;;;;;;59.20;35.57;;;;;;;10.17;62.48;98438.25;2224783;79;20993;-84
2021/12/07 00:20:26;;;;;;;57.90;32.20;;;;;;;7.30;61.02;98440.57;2212873;79;21024;-83
2021/12/07 00:23:27;;;;;;;57.53;33.57;;;;;;;5.44;64.02;98448.05;2250918;79;21440;-81
2021/12/07 00:26:27;;;;;;;54.73;31.60;;;;;;;3.99;65.78;98467.52;2226757;78;20993;-83
2021/12/07 00:29:30;;;;;;;52.60;30.93;;;;;;;3.04;68.04;98465.61;2215070;79;21425;-83
2021/12/07 00:32:33;;;;;;;54.53;31.10;;;;;;;2.34;69.59;98478.47;2233388;79;21009;-83
2021/12/07 00:35:36;;;;;;;54.13;32.83;;;;;;;1.89;70.99;98482.70;2229067;79;21065;-83
2021/12/07 00:38:36;;;;;;;86.60;44.83;;;;;;;1.65;71.99;98498.41;2201768;79;21057;-83
2021/12/07 00:41:37;;;;;;;68.10;36.07;;;;;;;1.45;72.72;98501.44;2201653;78;21005;-83
2021/12/07 00:44:37;;;;;;;75.13;39.90;;;;;;;1.30;73.34;98506.82;2213570;79;20989;-83
2021/12/07 00:47:38;;;;;;;63.63;34.30;;;;;;;1.23;73.90;98507.37;2230518;79;21021;-84
2021/12/07 00:50:38;;;;;;;66.73;34.10;;;;;;;1.17;74.34;98504.13;2194893;79;21357;-79
2021/12/07 00:53:39;;;;;;;73.17;38.47;;;;;;;1.17;74.62;98500.28;2246822;79;21020;-83
2021/12/07 00:56:39;;;;;;;68.77;35.90;;;;;;;1.06;74.88;98501.51;2231127;79;20987;-83
2021/12/07 00:59:40;;;;;;;63.83;34.23;;;;;;;0.92;75.41;98493.60;2194912;79;20993;-82
2021/12/07 01:02:40;;;;;;;62.00;33.17;;;;;;;0.73;75.69;98493.16;2214823;79;21417;-82
2021/12/07 01:05:47;;;;;;;65.53;35.53;;;;;;;0.56;76.27;98485.98;2214224;79;20946;-82
2021/12/07 01:24:40;;;;;;;67.67;35.53;;;;;;;0.36;77.01;98493.60;2220354;79;20977;-82
2021/12/07 01:24:45;;;;;;;74.70;37.97;;;;;;;0.10;78.15;98494.96;2224130;79;21348;-81
2021/12/07 01:27:49;;;;;;;73.80;38.77;;;;;;;0.04;78.49;98498.52;2251753;78;21001;-80
2021/12/07 01:31:07;;;;;;;67.27;36.13;;;;;;;-0.01;78.82;98497.87;2211395;79;20966;-81
2021/12/07 01:37:26;;;;;;;70.60;36.47;;;;;;;-0.09;79.01;98485.08;2221041;79;20989;-79
2021/12/07 01:43:53;;;;;;;71.07;35.93;;;;;;;-0.07;79.34;98496.30;2225594;79;20979;-82
2021/12/07 01:50:12;;;;;;;73.60;39.17;;;;;;;-0.06;79.60;98501.91;2226222;79;21021;-80
2021/12/07 02:02:28;;;;;;;66.40;34.53;;;;;;;-0.09;79.63;98494.46;2246941;79;21028;-80
2021/12/07 02:05:29;;;;;;;66.73;34.73;;;;;;;-0.15;79.50;98487.35;2209353;78;21337;-80
2021/12/07 02:08:30;;;;;;;64.57;33.60;;;;;;;-0.18;79.37;98492.34;2240374;79;21020;-80
2021/12/07 02:11:30;;;;;;;68.00;36.57;;;;;;;-0.20;79.51;98486.25;2217215;79;21006;-81
2021/12/07 02:14:31;;;;;;;57.27;33.13;;;;;;;-0.23;79.91;98489.95;2236555;79;20961;-81
2021/12/07 02:17:33;;;;;;;64.83;32.33;;;;;;;-0.27;79.75;98498.30;2244763;79;21432;-81
2021/12/07 02:20:34;;;;;;;69.03;33.10;;;;;;;-0.25;79.99;98491.56;2215321;79;21092;-80
2021/12/07 02:23:34;;;;;;;66.03;35.43;;;;;;;-0.19;79.98;98486.73;2193742;79;21372;-80
2021/12/07 02:26:35;;;;;;;76.60;40.10;;;;;;;-0.20;80.17;98480.24;2211470;79;21403;-79
2021/12/07 02:29:35;;;;;;;65.53;32.67;;;;;;;-0.20;80.23;98487.53;2230617;79;20989;-80
2021/12/07 02:32:36;;;;;;;65.53;33.80;;;;;;;-0.18;80.00;98478.23;2224863;78;21047;-80
2021/12/07 02:35:36;;;;;;;64.17;33.70;;;;;;;-0.16;80.06;98481.74;2216295;79;21013;-82
2021/12/07 02:38:37;;;;;;;70.03;33.73;;;;;;;-0.11;80.11;98487.09;2242732;79;21330;-81
2021/12/07 02:41:37;;;;;;;68.00;35.80;;;;;;;-0.11;80.18;98486.69;2238483;79;20974;-81
2021/12/07 02:44:38;;;;;;;73.83;36.33;;;;;;;-0.10;80.21;98478.59;2249204;78;20981;-80
2021/12/07 02:47:38;;;;;;;68.13;34.73;;;;;;;-0.12;80.14;98469.94;2234927;79;21009;-80
2021/12/07 02:50:39;;;;;;;74.87;37.27;;;;;;;-0.13;80.25;98458.80;2212166;79;21389;-81
2021/12/07 02:53:40;;;;;;;69.30;36.60;;;;;;;-0.10;80.29;98453.81;2232112;79;20954;-80
2021/12/07 02:56:40;;;;;;;71.73;35.37;;;;;;;-0.11;80.45;98456.31;2197750;79;20985;-80
2021/12/07 02:59:41;;;;;;;67.83;33.23;;;;;;;-0.17;80.37;98457.30;2197632;79;21100;-81
2021/12/07 03:02:47;;;;;;;71.80;36.63;;;;;;;-0.21;80.45;98458.84;2219321;79;21377;-80
2021/12/07 03:28:40;;;;;;;62.70;32.90;;;;;;;-0.17;80.75;98481.67;2217272;79;21028;-82
2021/12/07 03:31:41;;;;;;;68.47;35.33;;;;;;;-0.13;80.51;98484.45;2205531;79;21002;-82
2021/12/07 03:34:41;;;;;;;69.07;35.00;;;;;;;-0.12;80.49;98487.50;2250194;78;20989;-81
2021/12/07 03:37:42;;;;;;;68.50;35.33;;;;;;;-0.07;80.49;98489.88;2233224;78;20962;-81
2021/12/07 03:40:42;;;;;;;69.93;34.70;;;;;;;0.01;80.59;98493.24;2242919;78;20974;-82
2021/12/07 03:43:43;;;;;;;72.27;36.47;;;;;;;-0.04;80.28;98489.14;2224896;79;21409;-82
2021/12/07 03:46:44;;;;;;;73.07;36.50;;;;;;;-0.06;80.16;98494.20;2198404;78;20981;-82
2021/12/07 03:49:44;;;;;;;69.10;33.87;;;;;;;-0.04;80.24;98496.44;2247963;79;20985;-82
2021/12/07 03:52:44;;;;;;;80.50;38.20;;;;;;;-0.02;80.24;98497.39;2215993;79;20990;-81
2021/12/07 03:55:45;;;;;;;68.90;35.30;;;;;;;-0.08;80.08;98506.48;2232951;79;20946;-81
2021/12/07 03:58:45;;;;;;;73.23;34.23;;;;;;;-0.18;80.15;98509.01;2233057;79;21013;-81
2021/12/07 04:01:46;;;;;;;74.37;35.97;;;;;;;-0.24;80.32;98516.81;2246222;78;21004;-81
2021/12/07 04:04:48;;;;;;;71.83;35.37;;;;;;;-0.30;80.47;98521.64;2220329;79;20993;-81
2021/12/07 04:10:51;;;;;;;65.27;32.27;;;;;;;-0.41;80.56;98524.56;2229299;79;20988;-81
2021/12/07 04:13:52;;;;;;;67.13;32.67;;;;;;;-0.39;80.71;98525.92;2241543;78;20985;-83
2021/12/07 04:16:52;;;;;;;58.57;26.30;;;;;;;-0.36;80.81;98526.95;2221043;79;21017;-81
2021/12/07 04:19:53;;;;;;;65.67;32.17;;;;;;;0.76;94.74;98531.84;2204770;79;21037;-82
2021/12/07 04:22:54;;;;;;;66.83;33.63;;;;;;;2.07;82.43;98525.91;2236829;78;21337;-79
2021/12/07 04:25:55;;;;;;;70.20;32.40;;;;;;;1.62;78.62;98528.75;2248330;79;20985;-81
2021/12/07 04:28:55;;;;;;;60.37;30.40;;;;;;;1.16;77.98;98528.08;2246344;79;20989;-81
2021/12/07 04:31:56;;;;;;;62.93;30.90;;;;;;;0.87;78.48;98529.78;2249528;79;21103;-81
2021/12/07 04:34:56;;;;;;;58.97;29.97;;;;;;;0.67;78.44;98522.84;2250271;78;21032;-81
2021/12/07 04:37:57;;;;;;;58.03;30.40;;;;;;;0.55;78.80;98531.75;2224092;78;21385;-81
2021/12/07 04:40:57;;;;;;;65.63;32.10;;;;;;;0.50;78.77;98525.52;2230859;78;21436;-80
2021/12/07 04:43:58;;;;;;;55.33;29.07;;;;;;;0.43;78.74;98525.17;2211049;79;21269;-80
2021/12/07 04:50:40;;;;;;;61.00;30.30;;;;;;;0.28;78.86;98535.61;2185155;79;20969;-80
2021/12/07 04:59:44;;;;;;;64.73;32.73;;;;;;;0.06;78.97;98543.09;2217015;79;21373;-82
2021/12/07 05:02:50;;;;;;;59.00;29.67;;;;;;;-0.03;79.22;98552.48;2235842;79;21091;-82
2021/12/07 05:05:50;;;;;;;70.77;32.57;;;;;;;-0.03;79.67;98553.36;2245381;79;21068;-83
2021/12/07 05:08:56;;;;;;;62.57;31.07;;;;;;;-0.06;79.55;98553.22;2238728;79;20972;-81
2021/12/07 05:12:16;;;;;;;62.77;30.87;;;;;;;-0.10;79.74;98548.74;2242225;79;21372;-82
2021/12/07 05:15:02;;;;;;;60.47;30.90;;;;;;;-0.08;79.88;98546.25;2216945;79;20981;-81
2021/12/07 05:18:22;;;;;;;62.00;29.60;;;;;;;-0.03;79.84;98548.23;2226345;79;21413;-81
2021/12/07 05:24:27;;;;;;;58.87;29.63;;;;;;;-0.08;79.82;98556.11;2238863;79;21411;-82
2021/12/07 05:40:42;;;;;;;51.13;27.47;;;;;;;-0.05;79.21;98549.84;2205864;79;21409;-81
2021/12/07 05:43:43;;;;;;;54.23;27.13;;;;;;;-0.06;79.45;98544.23;2235871;79;20965;-80
2021/12/07 05:49:46;;;;;;;50.00;26.17;;;;;;;-0.07;79.20;98541.20;2214752;79;21064;-80
2021/12/07 05:52:46;;;;;;;55.50;25.40;;;;;;;-0.09;79.57;98544.09;2198484;79;20989;-79
2021/12/07 05:55:47;;;;;;;52.57;26.23;;;;;;;-0.19;79.32;98549.58;2204645;79;21660;-80
2021/12/07 05:58:47;;;;;;;50.63;26.13;;;;;;;-0.20;79.53;98549.50;2239890;79;20989;-81
2021/12/07 06:01:48;;;;;;;51.93;26.47;;;;;;;-0.24;79.37;98556.57;2204025;78;20961;-80
2021/12/07 06:04:48;;;;;;;84.73;46.97;;;;;;;-0.28;79.69;98552.97;2218913;79;21005;-81
2021/12/07 06:07:49;;;;;;;56.80;27.87;;;;;;;-0.24;79.82;98554.00;2224534;79;21720;-80
2021/12/07 06:10:49;;;;;;;45.70;24.37;;;;;;;-0.19;79.91;98549.98;2246313;79;20974;-80
2021/12/07 06:13:50;;;;;;;51.77;24.33;;;;;;;-0.16;79.56;98556.14;2245625;78;20974;-80
2021/12/07 06:16:50;;;;;;;59.30;31.23;;;;;;;-0.18;79.52;98553.02;2206283;79;21048;-81
2021/12/07 06:19:51;;;;;;;73.13;39.57;;;;;;;-0.25;79.33;98549.28;2223211;79;20930;-81
2021/12/07 06:22:51;;;;;;;54.30;30.73;;;;;;;-0.32;79.50;98548.50;2223131;79;21656;-81
2021/12/07 06:25:54;;;;;;;53.73;28.97;;;;;;;-0.30;79.62;98553.30;2220700;79;21060;-81
2021/12/07 06:28:54;;;;;;;52.87;27.83;;;;;;;-0.29;79.61;98551.22;2199795;79;21056;-81
2021/12/07 06:31:55;;;;;;;52.10;26.43;;;;;;;-0.30;79.40;98554.98;2197793;79;21017;-81
2021/12/07 06:34:55;;;;;;;53.30;26.87;;;;;;;-0.32;79.46;98552.34;2222024;79;21008;-80
2021/12/07 06:37:56;;;;;;;47.20;24.67;;;;;;;-0.35;79.65;98545.37;2191971;79;21056;-79
2021/12/07 06:40:56;;;;;;;50.13;25.30;;;;;;;-0.40;79.62;98550.69;2206068;79;20970;-79
2021/12/07 06:43:57;;;;;;;47.97;25.23;;;;;;;-0.47;79.51;98549.91;2221965;79;20981;-80
2021/12/07 06:46:57;;;;;;;54.03;26.37;;;;;;;-0.49;79.81;98560.88;2200729;79;21636;-80
2021/12/07 06:49:58;;;;;;;51.13;26.30;;;;;;;-0.48;79.98;98559.68;2225755;79;20977;-80
2021/12/07 06:52:58;;;;;;;48.87;23.70;;;;;;;-0.52;79.82;98564.58;2213704;79;20954;-80
2021/12/07 06:55:59;;;;;;;67.50;27.63;;;;;;;-0.51;80.00;98562.49;2250904;78;20985;-81
2021/12/07 06:58:59;;;;;;;48.07;23.10;;;;;;;-0.53;79.89;98564.98;2245604;78;21309;-81
2021/12/07 07:02:00;;;;;;;54.47;27.40;;;;;;;-0.50;79.93;98567.70;2202955;79;20993;-80
2021/12/07 07:05:00;;;;;;;55.63;27.63;;;;;;;-0.56;80.03;98578.05;2208873;79;21000;-81
2021/12/07 07:08:02;;;;;;;61.50;28.93;;;;;;;-0.57;80.19;98573.31;2219369;79;20970;-82
2021/12/07 07:11:02;;;;;;;58.03;29.23;;;;;;;-0.49;80.36;98570.73;2191754;79;20985;-81
2021/12/07 07:14:03;;;;;;;58.90;27.30;;;;;;;-0.37;80.25;98576.88;2201689;79;21345;-82
2021/12/07 07:17:03;;;;;;;57.47;27.77;;;;;;;-0.35;80.10;98580.00;2223544;79;21345;-80
2021/12/07 07:20:04;;;;;;;57.53;26.60;;;;;;;-0.30;79.98;98578.07;2220479;79;21001;-81
2021/12/07 07:23:05;;;;;;;60.37;28.70;;;;;;;-0.28;79.88;98581.59;2205222;79;20934;-80
2021/12/07 07:26:05;;;;;;;60.67;29.67;;;;;;;-0.32;79.76;98579.28;2236267;78;20982;-81
2021/12/07 07:29:06;;;;;;;59.70;29.40;;;;;;;-0.28;79.95;98584.16;2198085;78;21431;-79
2021/12/07 07:32:06;;;;;;;53.17;27.97;;;;;;;-0.27;79.92;98589.77;2212531;79;21031;-80
2021/12/07 07:35:07;;;;;;;60.77;30.23;;;;;;;-0.27;79.58;98593.21;2215901;79;20997;-81
2021/12/07 07:38:07;;;;;;;59.00;29.97;;;;;;;-0.32;79.48;98594.66;2209755;78;20969;-80
2021/12/07 07:41:08;;;;;;;63.30;28.97;;;;;;;-0.32;79.85;98596.83;2216314;79;21020;-81
2021/12/07 07:44:09;;;;;;;63.50;30.13;;;;;;;-0.28;79.71;98604.27;2237051;79;20985;-80
2021/12/07 07:47:09;;;;;;;71.40;35.33;;;;;;;-0.26;79.58;98608.20;2204069;79;20962;-81
2021/12/07 07:50:11;;;;;;;67.17;34.30;;;;;;;-0.28;79.48;98608.12;2173247;79;21020;-81
2021/12/07 07:53:12;;;;;;;69.87;35.57;;;;;;;-0.24;79.62;98607.88;2202011;79;20958;-80
2021/12/07 07:56:13;;;;;;;56.73;30.07;;;;;;;-0.15;79.43;98610.49;2236188;79;21028;-82
2021/12/07 07:59:13;;;;;;;87.57;34.83;;;;;;;-0.12;79.10;98612.33;2232666;79;21025;-80
2021/12/07 08:02:14;;;;;;;50.83;24.73;;;;;;;-0.13;79.24;98605.44;2212976;79;20985;-81
2021/12/07 08:05:14;;;;;;;51.80;28.27;;;;;;;-0.09;78.75;98611.20;2231514;79;21013;-81
2021/12/07 08:08:15;;;;;;;51.13;27.23;;;;;;;-0.09;78.76;98609.52;2228212;79;20961;-80
2021/12/07 08:11:16;;;;;;;54.27;28.47;;;;;;;-0.01;78.86;98601.79;2248375;79;21029;-81
2021/12/07 08:14:17;;;;;;;49.13;27.07;;;;;;;-0.01;78.34;98608.20;2240157;79;20970;-81
2021/12/07 08:17:17;;;;;;;44.57;25.90;;;;;;;0.02;78.37;98616.49;2198450;79;20972;-80
2021/12/07 08:20:18;;;;;;;48.63;26.90;;;;;;;0.11;78.34;98619.91;2192433;79;20977;-81
2021/12/07 08:23:19;;;;;;;50.67;27.57;;;;;;;0.16;78.17;98618.05;2216851;79;20957;-81
2021/12/07 08:26:19;;;;;;;54.17;29.40;;;;;;;0.26;78.10;98618.09;2223614;78;20957;-80
2021/12/07 08:29:20;;;;;;;46.33;26.03;;;;;;;0.32;77.94;98613.25;2208662;78;21342;-82
2021/12/07 08:32:20;;;;;;;57.10;29.53;;;;;;;0.39;77.43;98622.13;2203362;79;20981;-82
2021/12/07 08:35:21;;;;;;;60.53;30.87;;;;;;;0.37;77.31;98623.73;2207145;79;20987;-81
2021/12/07 08:38:21;;;;;;;63.77;31.97;;;;;;;0.38;76.94;98627.66;2192106;79;21044;-81
2021/12/07 08:41:22;;;;;;;72.33;34.63;;;;;;;0.31;77.11;98631.63;2219114;79;20946;-81
2021/12/07 08:44:22;;;;;;;105.97;61.80;;;;;;;0.37;76.94;98632.32;2205408;79;21362;-80
2021/12/07 08:47:23;;;;;;;73.63;33.97;;;;;;;0.31;76.50;98635.47;2209611;79;20981;-80
2021/12/07 08:50:24;;;;;;;99.77;55.00;;;;;;;0.31;76.80;98635.88;2232210;79;21429;-81
2021/12/07 08:53:24;;;;;;;99.47;52.03;;;;;;;0.28;76.49;98635.73;2214402;78;21009;-80
2021/12/07 08:59:46;;;;;;;108.63;56.37;;;;;;;0.29;76.32;98634.92;2219640;79;21714;-81
2021/12/07 09:02:39;;;;;;;121.00;63.20;;;;;;;0.31;76.65;98636.75;2231040;79;21629;-81
2021/12/07 09:05:39;;;;;;;53.07;29.27;;;;;;;0.51;77.61;98639.40;2235177;79;21064;-81
2021/12/07 09:08:40;;;;;;;55.57;26.23;;;;;;;0.62;76.84;98632.68;2230474;78;21381;-81
2021/12/07 09:11:40;;;;;;;50.53;27.33;;;;;;;0.60;75.97;98634.30;2243491;79;20993;-81
2021/12/07 09:14:44;;;;;;;60.17;30.33;;;;;;;0.58;76.32;98628.61;2231169;79;21388;-81
2021/12/07 09:17:44;;;;;;;50.83;28.53;;;;;;;0.59;75.98;98635.50;2228905;79;21049;-81
2021/12/07 09:20:45;;;;;;;56.93;30.03;;;;;;;0.62;75.91;98633.96;2236357;79;21004;-81
2021/12/07 09:23:45;;;;;;;53.10;27.43;;;;;;;0.61;75.42;98627.06;2222683;78;20970;-81
2021/12/07 09:29:48;;;;;;;68.20;33.13;;;;;;;0.62;75.79;98632.68;2213379;79;20945;-81
2021/12/07 09:32:49;;;;;;;54.00;28.73;;;;;;;0.60;75.30;98630.44;2238234;79;21696;-81
2021/12/07 09:35:51;;;;;;;82.83;31.77;;;;;;;0.59;74.98;98626.11;2229829;79;20965;-82
2021/12/07 09:38:52;;;;;;;46.97;24.63;;;;;;;0.56;75.42;98627.25;2230135;79;20993;-80
2021/12/07 09:41:52;;;;;;;50.37;25.17;;;;;;;0.53;75.24;98625.82;2241545;79;21740;-82
2021/12/07 09:44:53;;;;;;;45.10;26.97;;;;;;;0.50;74.93;98628.24;2248768;79;20977;-82
2021/12/07 09:47:53;;;;;;;48.70;26.57;;;;;;;0.46;75.16;98630.19;2213422;79;21380;-83
2021/12/07 09:50:54;;;;;;;94.73;41.03;;;;;;;0.46;75.67;98623.77;2250624;78;20942;-82
2021/12/07 09:53:55;;;;;;;76.77;33.70;;;;;;;0.50;75.50;98620.54;2232410;78;20968;-81
2021/12/07 09:56:55;;;;;;;55.23;26.47;;;;;;;0.53;75.92;98625.82;2232215;79;20970;-80
2021/12/07 09:59:56;;;;;;;58.87;29.57;;;;;;;0.54;75.46;98619.00;2238774;78;20980;-82
2021/12/07 10:02:56;;;;;;;49.67;25.67;;;;;;;0.52;74.98;98622.78;2223568;79;20977;-82
2021/12/07 10:05:57;;;;;;;68.67;30.97;;;;;;;0.51;75.27;98616.28;2244521;78;21060;-82
2021/12/07 10:08:57;;;;;;;58.67;29.83;;;;;;;0.49;75.14;98613.64;2233980;79;21396;-80
2021/12/07 10:11:58;;;;;;;78.37;34.53;;;;;;;0.47;75.68;98613.98;2234690;79;20989;-81
2021/12/07 10:14:58;;;;;;;67.33;34.33;;;;;;;0.46;75.57;98611.34;2207672;78;20974;-79
2021/12/07 10:17:59;;;;;;;66.20;34.33;;;;;;;0.48;75.99;98613.58;2225490;79;20970;-80
2021/12/07 10:20:59;;;;;;;66.90;31.27;;;;;;;0.52;76.02;98622.78;2226790;79;21659;-81
2021/12/07 10:24:02;;;;;;;65.20;32.73;;;;;;;0.55;75.76;98621.64;2221587;79;21009;-82
2021/12/07 10:27:02;;;;;;;55.83;30.00;;;;;;;0.61;75.90;98619.36;2227682;79;20969;-83
2021/12/07 10:30:03;;;;;;;54.73;28.87;;;;;;;0.69;75.66;98621.00;2239206;78;20989;-82
2021/12/07 10:33:03;;;;;;;50.23;27.03;;;;;;;0.73;75.73;98622.91;2230121;78;20930;-81
2021/12/07 10:36:04;;;;;;;69.80;36.13;;;;;;;0.77;75.56;98620.95;2242696;78;20993;-82
2021/12/07 10:39:04;;;;;;;58.23;29.50;;;;;;;0.80;75.47;98617.64;2242600;78;21453;-82
2021/12/07 10:42:05;;;;;;;60.77;31.23;;;;;;;0.82;75.66;98625.02;2236248;79;20938;-82
2021/12/07 10:45:05;;;;;;;53.03;28.40;;;;;;;0.90;74.88;98632.30;2244400;79;20978;-81
2021/12/07 10:48:06;;;;;;;58.63;30.10;;;;;;;0.95;74.87;98628.25;2233571;79;21369;-80
2021/12/07 10:51:09;;;;;;;55.70;28.37;;;;;;;0.98;74.99;98624.95;2235217;79;20961;-81
2021/12/07 10:54:10;;;;;;;56.70;30.67;;;;;;;1.02;74.96;98624.27;2249535;78;21013;-82
2021/12/07 10:57:10;;;;;;;69.37;32.13;;;;;;;1.08;74.80;98632.27;2238039;79;20962;-84
2021/12/07 11:00:15;;;;;;;56.33;29.67;;;;;;;1.09;74.40;98632.73;2228612;79;21766;-82
2021/12/07 11:03:16;;;;;;;49.47;25.43;;;;;;;1.04;74.74;98629.08;2214488;79;21048;-82
2021/12/07 11:06:16;;;;;;;50.73;27.47;;;;;;;1.03;74.22;98631.17;2192263;79;21056;-82
2021/12/07 11:09:17;;;;;;;53.87;27.67;;;;;;;0.90;74.21;98622.43;2224035;79;21056;-83
2021/12/07 11:12:17;;;;;;;60.87;31.83;;;;;;;0.85;74.79;98626.45;2222888;78;20965;-82
2021/12/07 11:15:23;;;;;;;60.13;31.83;;;;;;;0.87;74.93;98627.02;2250800;79;21319;-82
2021/12/07 11:18:20;;;;;;;56.00;30.00;;;;;;;0.82;74.82;98622.45;2222588;79;21001;-82
2021/12/07 11:21:21;;;;;;;57.70;29.93;;;;;;;0.80;75.09;98628.80;2233787;79;20939;-83
2021/12/07 11:24:22;;;;;;;55.07;28.63;;;;;;;0.77;75.25;98629.95;2214400;79;21456;-81
2021/12/07 11:30:42;;;;;;;62.20;30.90;;;;;;;0.81;75.06;98628.40;2221535;79;20966;-82
2021/12/07 11:33:42;;;;;;;68.23;33.43;;;;;;;0.77;74.99;98635.48;2247613;79;21292;-82
2021/12/07 11:36:43;;;;;;;103.93;42.57;;;;;;;0.73;74.97;98629.73;2213771;79;20981;-82
2021/12/07 11:40:00;;;;;;;106.00;45.63;;;;;;;0.76;75.25;98626.90;2221714;79;21059;-83
2021/12/07 11:43:00;;;;;;;116.00;48.60;;;;;;;0.82;75.25;98631.44;2222850;79;21060;-83
2021/12/07 11:46:01;;;;;;;121.03;56.33;;;;;;;0.78;75.02;98630.42;2233420;78;20957;-83
2021/12/07 11:49:01;;;;;;;104.83;44.63;;;;;;;0.86;75.48;98636.80;2248325;79;20989;-83
2021/12/07 11:52:02;;;;;;;95.80;47.23;;;;;;;0.94;74.95;98638.47;2238904;79;21009;-82
2021/12/07 11:55:02;;;;;;;73.67;35.93;;;;;;;0.80;74.95;98630.48;2220036;78;20989;-81
2021/12/07 11:58:03;;;;;;;63.60;31.47;;;;;;;0.80;74.91;98637.80;2220208;79;20954;-82
2021/12/07 12:01:06;;;;;;;61.00;32.90;;;;;;;0.74;74.42;98631.48;2220383;79;20993;-82
2021/12/07 12:04:06;;;;;;;103.97;47.37;;;;;;;0.64;75.09;98637.48;2214291;79;21032;-81
2021/12/07 12:07:08;;;;;;;76.77;38.77;;;;;;;0.63;75.52;98637.00;2246237;79;20981;-82
2021/12/07 12:10:09;;;;;;;60.90;30.60;;;;;;;0.58;75.23;98632.06;2201702;79;21032;-82
2021/12/07 12:13:09;;;;;;;69.87;33.70;;;;;;;0.58;75.45;98638.48;2221785;79;21009;-80
2021/12/07 12:16:10;;;;;;;59.07;31.00;;;;;;;0.58;75.78;98634.63;2212153;79;20994;-82
2021/12/07 12:19:13;;;;;;;58.20;29.17;;;;;;;0.52;75.04;98642.44;2240178;78;21009;-81
2021/12/07 12:22:14;;;;;;;67.47;35.33;;;;;;;0.43;75.38;98637.75;2242797;79;20962;-82
2021/12/07 12:25:14;;;;;;;69.53;34.03;;;;;;;0.36;75.68;98639.55;2233016;78;21401;-83
2021/12/07 12:28:15;;;;;;;80.43;38.30;;;;;;;0.38;75.83;98643.06;2234266;79;20985;-82
2021/12/07 12:31:15;;;;;;;70.87;34.97;;;;;;;0.47;79.18;98647.77;2194643;79;20981;-82
2021/12/07 12:34:16;;;;;;;65.70;32.10;;;;;;;0.65;75.88;98644.78;2247247;79;21095;-82
2021/12/07 12:37:16;;;;;;;62.93;31.43;;;;;;;0.55;75.50;98644.75;2231608;78;21536;-81
2021/12/07 12:40:17;;;;;;;67.80;31.93;;;;;;;0.48;75.65;98638.84;2219271;79;21028;-82
2021/12/07 12:43:17;;;;;;;61.70;30.67;;;;;;;0.32;75.47;98644.05;2247165;78;21653;-82
2021/12/07 12:46:20;;;;;;;71.37;38.50;;;;;;;0.25;75.94;98645.84;2218577;79;21779;-82
2021/12/07 12:52:22;;;;;;;59.20;29.80;;;;;;;0.48;75.90;98643.98;2204217;79;21013;-82
2021/12/07 12:55:23;;;;;;;60.57;31.20;;;;;;;0.42;75.80;98647.55;2215745;79;20977;-81
2021/12/07 12:58:26;;;;;;;57.40;29.27;;;;;;;0.36;75.74;98652.38;2205950;79;21073;-81
2021/12/07 13:01:27;;;;;;;58.33;29.77;;;;;;;0.33;75.81;98652.23;2193730;79;21001;-82
2021/12/07 13:04:29;;;;;;;56.83;28.67;;;;;;;0.28;75.65;98654.58;2218200;79;21044;-82
2021/12/07 13:07:29;;;;;;;57.50;30.37;;;;;;;0.27;75.94;98659.64;2233276;79;20946;-82
2021/12/07 13:10:30;;;;;;;58.90;28.43;;;;;;;0.28;76.30;98662.28;2229957;79;20993;-84
2021/12/07 13:13:30;;;;;;;48.20;26.30;;;;;;;0.32;76.01;98667.16;2251203;78;21017;-83
2021/12/07 13:16:33;;;;;;;55.87;29.17;;;;;;;0.33;75.86;98666.76;2235399;78;20994;-82
2021/12/07 13:19:33;;;;;;;55.80;30.33;;;;;;;0.28;75.91;98675.52;2251350;79;21429;-83
2021/12/07 13:22:34;;;;;;;60.07;32.27;;;;;;;0.35;76.09;98675.02;2243684;78;21020;-82
2021/12/07 13:25:34;;;;;;;50.47;26.30;;;;;;;0.33;76.00;98674.06;2221923;79;21041;-80
2021/12/07 13:28:36;;;;;;;60.63;30.93;;;;;;;0.34;76.01;98678.39;2239075;79;21366;-82
2021/12/07 13:31:36;;;;;;;51.80;27.73;;;;;;;0.29;75.85;98677.28;2214604;79;20997;-82
2021/12/07 13:34:37;;;;;;;50.03;26.30;;;;;;;0.26;75.83;98680.98;2233494;78;20996;-81
2021/12/07 13:37:37;;;;;;;58.67;30.57;;;;;;;0.26;76.23;98673.28;2236996;78;20985;-81
2021/12/07 13:40:38;;;;;;;56.90;28.33;;;;;;;0.32;75.99;98676.15;2201150;79;21028;-81
2021/12/07 13:43:38;;;;;;;70.07;34.17;;;;;;;0.33;75.85;98679.20;2233089;79;21656;-77
2021/12/07 13:46:39;;;;;;;67.47;32.97;;;;;;;0.27;75.88;98682.34;2191814;79;21044;-75
2021/12/07 13:49:39;;;;;;;60.57;31.80;;;;;;;0.31;76.19;98683.37;2204523;79;21016;-82
2021/12/07 13:52:40;;;;;;;63.57;32.43;;;;;;;0.33;75.82;98686.89;2216955;79;20981;-83
2021/12/07 13:55:40;;;;;;;59.10;30.73;;;;;;;0.47;76.27;98680.75;2229820;78;21432;-82
2021/12/07 13:58:41;;;;;;;60.97;29.87;;;;;;;0.43;75.76;98687.83;2242738;79;20969;-82
2021/12/07 14:01:41;;;;;;;58.50;32.90;;;;;;;0.41;75.77;98683.02;2248740;78;20942;-80
2021/12/07 14:04:42;;;;;;;53.07;29.10;;;;;;;0.40;75.88;98679.09;2214112;78;21012;-82
2021/12/07 14:07:42;;;;;;;51.30;28.50;;;;;;;0.40;75.75;98686.39;2227639;79;21467;-83
2021/12/07 14:10:43;;;;;;;56.13;30.10;;;;;;;0.42;75.81;98688.63;2252277;78;21393;-82
2021/12/07 14:13:43;;;;;;;54.13;28.67;;;;;;;0.42;75.77;98689.91;2217356;78;21112;-83
2021/12/07 14:16:44;;;;;;;59.90;31.97;;;;;;;0.36;75.70;98693.47;2242423;79;20970;-83
2021/12/07 14:19:44;;;;;;;53.27;29.60;;;;;;;0.37;76.03;98690.09;2218961;79;21021;-81
2021/12/07 14:22:45;;;;;;;54.23;28.57;;;;;;;0.33;75.99;98680.88;2205880;79;21598;-81
2021/12/07 14:25:45;;;;;;;55.83;28.20;;;;;;;0.28;75.73;98688.36;2232179;79;21052;-81
2021/12/07 14:28:46;;;;;;;54.13;30.37;;;;;;;0.16;75.61;98679.65;2247621;79;21021;-82
2021/12/07 14:31:46;;;;;;;56.40;30.43;;;;;;;0.08;75.80;98673.66;2217788;79;20989;-81
2021/12/07 14:34:48;;;;;;;50.47;27.20;;;;;;;0.07;75.97;98670.61;2245230;79;21044;-81
2021/12/07 14:37:49;;;;;;;60.17;29.83;;;;;;;0.01;75.91;98671.19;2221882;79;21025;-82
2021/12/07 14:40:49;;;;;;;60.40;31.00;;;;;;;-0.02;76.12;98665.47;2239866;78;20989;-81
2021/12/07 14:43:50;;;;;;;59.70;30.20;;;;;;;-0.01;76.32;98668.51;2240758;79;21400;-82
2021/12/07 14:46:50;;;;;;;87.80;43.80;;;;;;;-0.05;76.31;98673.01;2227847;78;20977;-81
2021/12/07 14:49:51;;;;;;;66.90;34.10;;;;;;;-0.09;76.46;98677.50;2216943;79;21081;-82
2021/12/07 14:52:52;;;;;;;60.13;30.47;;;;;;;-0.03;76.51;98676.94;2229639;79;21009;-81
2021/12/07 14:55:52;;;;;;;57.13;28.87;;;;;;;-0.03;76.39;98682.06;2200430;79;20973;-80
2021/12/07 14:58:53;;;;;;;56.50;28.43;;;;;;;-0.06;76.54;98679.34;2198962;79;20985;-82
2021/12/07 15:01:53;;;;;;;50.13;26.67;;;;;;;-0.07;76.56;98682.72;2193902;79;21389;-82
2021/12/07 15:04:54;;;;;;;50.00;25.33;;;;;;;-0.28;76.10;98686.35;2200897;79;21409;-82
2021/12/07 15:07:54;;;;;;;49.70;25.33;;;;;;;-0.28;76.10;98686.35;2240117;79;20986;-82
2021/12/07 15:10:55;;;;;;;44.43;22.90;;;;;;;-0.29;76.58;98692.28;2232309;78;21400;-83
2021/12/07 15:13:55;;;;;;;50.20;26.97;;;;;;;-0.32;76.58;98699.82;2234650;78;21069;-82
2021/12/07 15:16:56;;;;;;;56.33;28.13;;;;;;;-0.36;76.67;98706.88;2216252;78;21397;-80
2021/12/07 15:19:56;;;;;;;62.23;31.97;;;;;;;-0.28;76.72;98716.25;2226577;79;20997;-83
2021/12/07 15:22:57;;;;;;;53.80;27.37;;;;;;;-0.23;76.66;98719.94;2228589;78;20978;-83
2021/12/07 15:25:58;;;;;;;66.60;32.43;;;;;;;-0.24;76.23;98717.77;2225489;79;21021;-82
2021/12/07 15:29:00;;;;;;;80.20;36.53;;;;;;;-0.23;76.56;98725.95;2225447;79;20977;-82
2021/12/07 15:32:01;;;;;;;86.87;41.13;;;;;;;-0.16;76.54;98733.16;2249381;78;21056;-82
2021/12/07 15:35:01;;;;;;;83.70;39.93;;;;;;;-0.14;76.51;98737.97;2202516;79;20966;-82
2021/12/07 15:38:02;;;;;;;69.00;33.57;;;;;;;-0.20;76.22;98742.78;2219894;79;20969;-82